CEB4844 RPVI-RPMZ
Flight info
| Callsign | CEB4844 |
|---|---|
| Flight time | 0h 48m |
| Altitude | 31000 |
| Route | NANAS3D NANAS B472 ALDIN/N0427F300 G578 PARAL PARAL2W |
| Aircraft | A320/M-SDE3FGHIRWY/LB1 |
Departure
| Time | 2026-04-28 08:01 |
|---|---|
| Airport | Iloilo International Airport (RPVI) |
Arrival
| Time | 2026-04-28 08:50 |
|---|---|
| Airport | Zamboanga International Airport (RPMZ) |
| Time | Latitude | Longitude | Altitude | Speed | Heading |
|---|---|---|---|---|---|
| 2026-04-28 07:45 | 10.83164 | 122.49662 | 137 ft | 0 kts | 110° |
| 2026-04-28 07:47 | 10.83165 | 122.49662 | 137 ft | 1 kts | 110° |
| 2026-04-28 07:47 | 10.83171 | 122.49642 | 140 ft | 3 kts | 107° |
| 2026-04-28 07:48 | 10.83177 | 122.49619 | 140 ft | 3 kts | 98° |
| 2026-04-28 07:48 | 10.83179 | 122.49595 | 140 ft | 3 kts | 77° |
| 2026-04-28 07:48 | 10.83170 | 122.49578 | 140 ft | 2 kts | 23° |
| 2026-04-28 07:48 | 10.83168 | 122.49577 | 140 ft | 0 kts | 20° |
| 2026-04-28 07:52 | 10.83172 | 122.49578 | 140 ft | 1 kts | 20° |
| 2026-04-28 07:53 | 10.83174 | 122.49579 | 140 ft | 1 kts | 20° |
| 2026-04-28 07:53 | 10.83186 | 122.49584 | 140 ft | 2 kts | 22° |
| 2026-04-28 07:53 | 10.83193 | 122.49587 | 140 ft | 2 kts | 21° |
| 2026-04-28 07:53 | 10.83221 | 122.49598 | 140 ft | 7 kts | 21° |
| 2026-04-28 07:54 | 10.83273 | 122.49617 | 140 ft | 8 kts | 20° |
| 2026-04-28 07:54 | 10.83335 | 122.49640 | 140 ft | 11 kts | 20° |
| 2026-04-28 07:54 | 10.83407 | 122.49667 | 140 ft | 11 kts | 20° |
| 2026-04-28 07:54 | 10.83479 | 122.49662 | 140 ft | 11 kts | 322° |
| 2026-04-28 07:55 | 10.83510 | 122.49601 | 140 ft | 9 kts | 290° |
| 2026-04-28 07:55 | 10.83531 | 122.49544 | 140 ft | 8 kts | 290° |
| 2026-04-28 07:55 | 10.83548 | 122.49496 | 141 ft | 6 kts | 289° |
| 2026-04-28 07:55 | 10.83561 | 122.49461 | 141 ft | 4 kts | 299° |
| 2026-04-28 07:56 | 10.83583 | 122.49449 | 141 ft | 3 kts | 345° |
| 2026-04-28 07:56 | 10.83601 | 122.49448 | 141 ft | 2 kts | 3° |
| 2026-04-28 07:56 | 10.83615 | 122.49452 | 141 ft | 2 kts | 17° |
| 2026-04-28 07:56 | 10.83626 | 122.49456 | 141 ft | 2 kts | 19° |
| 2026-04-28 07:57 | 10.83635 | 122.49459 | 141 ft | 2 kts | 20° |
| 2026-04-28 07:57 | 10.83668 | 122.49471 | 140 ft | 8 kts | 20° |
| 2026-04-28 07:57 | 10.83744 | 122.49499 | 140 ft | 15 kts | 19° |
| 2026-04-28 07:57 | 10.83849 | 122.49538 | 140 ft | 17 kts | 20° |
| 2026-04-28 07:58 | 10.83959 | 122.49579 | 139 ft | 17 kts | 20° |
| 2026-04-28 07:58 | 10.84077 | 122.49622 | 138 ft | 17 kts | 20° |
| 2026-04-28 07:58 | 10.84184 | 122.49662 | 138 ft | 16 kts | 20° |
| 2026-04-28 07:58 | 10.84289 | 122.49684 | 139 ft | 12 kts | 19° |
| 2026-04-28 07:59 | 10.84342 | 122.49725 | 139 ft | 10 kts | 100° |
| 2026-04-28 07:59 | 10.84318 | 122.49722 | 139 ft | 3 kts | 235° |
| 2026-04-28 07:59 | 10.84311 | 122.49711 | 139 ft | 1 kts | 234° |
| 2026-04-28 07:59 | 10.84308 | 122.49710 | 139 ft | 1 kts | 220° |
| 2026-04-28 08:00 | 10.84298 | 122.49704 | 136 ft | 0 kts | 202° |
| 2026-04-28 08:00 | 10.84291 | 122.49702 | 139 ft | 7 kts | 202° |
| 2026-04-28 08:00 | 10.83989 | 122.49589 | 139 ft | 86 kts | 200° |
| 2026-04-28 08:00 | 10.83238 | 122.49312 | 143 ft | 144 kts | 200° |
| 2026-04-28 08:01 | 10.82201 | 122.48917 | 502 ft | 164 kts | 201° |
| 2026-04-28 08:01 | 10.81119 | 122.48528 | 1104 ft | 167 kts | 197° |
| 2026-04-28 08:01 | 10.79961 | 122.48251 | 1625 ft | 177 kts | 175° |
| 2026-04-28 08:01 | 10.78850 | 122.48737 | 2215 ft | 178 kts | 130° |
| 2026-04-28 08:02 | 10.78154 | 122.49836 | 2534 ft | 197 kts | 117° |
| 2026-04-28 08:02 | 10.77404 | 122.51071 | 2909 ft | 212 kts | 121° |
| 2026-04-28 08:02 | 10.76461 | 122.52236 | 3529 ft | 215 kts | 139° |
| 2026-04-28 08:02 | 10.75185 | 122.53041 | 4196 ft | 217 kts | 152° |
| 2026-04-28 08:03 | 10.73800 | 122.53710 | 4677 ft | 230 kts | 154° |
| 2026-04-28 08:03 | 10.72258 | 122.54407 | 5019 ft | 255 kts | 155° |
| 2026-04-28 08:03 | 10.70575 | 122.55166 | 5592 ft | 271 kts | 154° |
| 2026-04-28 08:03 | 10.68841 | 122.55961 | 6432 ft | 275 kts | 154° |
| 2026-04-28 08:04 | 10.67088 | 122.56778 | 7265 ft | 280 kts | 154° |
| 2026-04-28 08:04 | 10.65311 | 122.57615 | 8102 ft | 283 kts | 154° |
| 2026-04-28 08:04 | 10.63510 | 122.58471 | 8916 ft | 288 kts | 153° |
| 2026-04-28 08:04 | 10.61685 | 122.59345 | 9733 ft | 292 kts | 153° |
| 2026-04-28 08:05 | 10.59811 | 122.60250 | 10184 ft | 309 kts | 153° |
| 2026-04-28 08:05 | 10.57811 | 122.61217 | 10632 ft | 323 kts | 153° |
| 2026-04-28 08:05 | 10.55764 | 122.62207 | 11301 ft | 329 kts | 153° |
| 2026-04-28 08:05 | 10.53678 | 122.63210 | 12010 ft | 334 kts | 153° |
| 2026-04-28 08:06 | 10.51565 | 122.64225 | 12716 ft | 338 kts | 153° |
| 2026-04-28 08:06 | 10.49426 | 122.65252 | 13411 ft | 342 kts | 153° |
| 2026-04-28 08:06 | 10.47261 | 122.66291 | 14057 ft | 346 kts | 153° |
| 2026-04-28 08:06 | 10.45079 | 122.67338 | 14663 ft | 349 kts | 153° |
| 2026-04-28 08:07 | 10.42872 | 122.68398 | 15259 ft | 353 kts | 153° |
| 2026-04-28 08:07 | 10.40643 | 122.69469 | 15842 ft | 356 kts | 153° |
| 2026-04-28 08:07 | 10.38392 | 122.70549 | 16423 ft | 360 kts | 153° |
| 2026-04-28 08:07 | 10.36117 | 122.71637 | 17001 ft | 363 kts | 153° |
| 2026-04-28 08:08 | 10.33816 | 122.72726 | 17571 ft | 367 kts | 153° |
| 2026-04-28 08:08 | 10.31490 | 122.73822 | 18140 ft | 370 kts | 153° |
| 2026-04-28 08:08 | 10.29142 | 122.74926 | 18636 ft | 373 kts | 153° |
| 2026-04-28 08:08 | 10.26776 | 122.76038 | 19131 ft | 376 kts | 153° |
| 2026-04-28 08:09 | 10.24393 | 122.77160 | 19640 ft | 379 kts | 153° |
| 2026-04-28 08:09 | 10.21992 | 122.78290 | 20128 ft | 382 kts | 153° |
| 2026-04-28 08:09 | 10.19576 | 122.79427 | 20621 ft | 384 kts | 153° |
| 2026-04-28 08:09 | 10.17142 | 122.80573 | 21114 ft | 387 kts | 153° |
| 2026-04-28 08:10 | 10.14689 | 122.81730 | 21591 ft | 390 kts | 153° |
| 2026-04-28 08:10 | 10.12219 | 122.82892 | 22060 ft | 393 kts | 153° |
| 2026-04-28 08:10 | 10.09731 | 122.84061 | 22534 ft | 395 kts | 153° |
| 2026-04-28 08:10 | 10.07232 | 122.85237 | 22992 ft | 398 kts | 153° |
| 2026-04-28 08:11 | 10.04707 | 122.86426 | 23438 ft | 401 kts | 153° |
| 2026-04-28 08:11 | 10.02170 | 122.87625 | 23807 ft | 404 kts | 153° |
| 2026-04-28 08:11 | 9.99618 | 122.88833 | 24185 ft | 406 kts | 153° |
| 2026-04-28 08:11 | 9.97090 | 122.90026 | 24558 ft | 408 kts | 153° |
| 2026-04-28 08:12 | 9.94506 | 122.91242 | 24943 ft | 410 kts | 153° |
| 2026-04-28 08:12 | 9.91909 | 122.92462 | 25312 ft | 413 kts | 153° |
| 2026-04-28 08:12 | 9.89296 | 122.93689 | 25687 ft | 415 kts | 153° |
| 2026-04-28 08:12 | 9.86670 | 122.94923 | 26061 ft | 417 kts | 153° |
| 2026-04-28 08:13 | 9.84030 | 122.96167 | 26421 ft | 420 kts | 153° |
| 2026-04-28 08:13 | 9.81375 | 122.97418 | 26787 ft | 422 kts | 153° |
| 2026-04-28 08:13 | 9.78706 | 122.98675 | 27141 ft | 424 kts | 153° |
| 2026-04-28 08:13 | 9.76020 | 122.99938 | 27476 ft | 427 kts | 153° |
| 2026-04-28 08:14 | 9.73318 | 123.01207 | 27823 ft | 429 kts | 153° |
| 2026-04-28 08:14 | 9.70606 | 123.02485 | 28168 ft | 431 kts | 153° |
| 2026-04-28 08:14 | 9.67880 | 123.03768 | 28512 ft | 433 kts | 153° |
| 2026-04-28 08:14 | 9.65139 | 123.05058 | 28844 ft | 435 kts | 153° |
| 2026-04-28 08:15 | 9.62383 | 123.06350 | 29180 ft | 438 kts | 154° |
| 2026-04-28 08:15 | 9.59616 | 123.07643 | 29500 ft | 440 kts | 154° |
| 2026-04-28 08:15 | 9.56827 | 123.08947 | 29833 ft | 442 kts | 154° |
| 2026-04-28 08:15 | 9.54026 | 123.10258 | 30126 ft | 444 kts | 154° |
| 2026-04-28 08:16 | 9.51214 | 123.11576 | 30428 ft | 446 kts | 153° |
| 2026-04-28 08:16 | 9.48397 | 123.12900 | 30734 ft | 447 kts | 153° |
| 2026-04-28 08:16 | 9.45580 | 123.14225 | 30841 ft | 444 kts | 153° |
| 2026-04-28 08:16 | 9.42825 | 123.15519 | 30867 ft | 428 kts | 153° |
| 2026-04-28 08:17 | 9.40178 | 123.16757 | 30866 ft | 411 kts | 153° |
| 2026-04-28 08:17 | 9.37618 | 123.17951 | 30867 ft | 401 kts | 153° |
| 2026-04-28 08:17 | 9.32599 | 123.20303 | 30868 ft | 396 kts | 153° |
| 2026-04-28 08:18 | 9.27602 | 123.22653 | 30869 ft | 396 kts | 153° |
| 2026-04-28 08:18 | 9.22606 | 123.24998 | 30868 ft | 396 kts | 153° |
| 2026-04-28 08:19 | 9.17642 | 123.27321 | 30873 ft | 395 kts | 153° |
| 2026-04-28 08:19 | 9.15018 | 123.28281 | 30871 ft | 398 kts | 165° |
| 2026-04-28 08:19 | 9.12305 | 123.28619 | 30858 ft | 400 kts | 178° |
| 2026-04-28 08:20 | 9.09533 | 123.28306 | 30854 ft | 403 kts | 192° |
| 2026-04-28 08:20 | 9.06892 | 123.27338 | 30848 ft | 406 kts | 205° |
| 2026-04-28 08:20 | 9.01960 | 123.24531 | 30839 ft | 407 kts | 207° |
| 2026-04-28 08:21 | 8.97027 | 123.21721 | 30832 ft | 408 kts | 207° |
| 2026-04-28 08:21 | 8.92081 | 123.18907 | 30833 ft | 408 kts | 207° |
| 2026-04-28 08:22 | 8.87134 | 123.16081 | 30835 ft | 408 kts | 207° |
| 2026-04-28 08:22 | 8.82188 | 123.13253 | 30834 ft | 408 kts | 207° |
| 2026-04-28 08:23 | 8.77240 | 123.10426 | 30835 ft | 408 kts | 207° |
| 2026-04-28 08:23 | 8.72291 | 123.07603 | 30839 ft | 408 kts | 207° |
| 2026-04-28 08:24 | 8.67345 | 123.04783 | 30835 ft | 408 kts | 207° |
| 2026-04-28 08:24 | 8.62396 | 123.01955 | 30839 ft | 408 kts | 207° |
| 2026-04-28 08:25 | 8.57670 | 122.99261 | 30840 ft | 408 kts | 207° |
| 2026-04-28 08:26 | 8.50232 | 122.95027 | 30635 ft | 411 kts | 207° |
| 2026-04-28 08:26 | 8.47777 | 122.93627 | 30410 ft | 411 kts | 207° |
| 2026-04-28 08:26 | 8.45279 | 122.92206 | 30180 ft | 413 kts | 207° |
| 2026-04-28 08:26 | 8.42773 | 122.90781 | 29953 ft | 414 kts | 207° |
| 2026-04-28 08:27 | 8.40260 | 122.89351 | 29698 ft | 415 kts | 207° |
| 2026-04-28 08:27 | 8.37740 | 122.87918 | 29445 ft | 416 kts | 207° |
| 2026-04-28 08:27 | 8.35216 | 122.86478 | 29175 ft | 417 kts | 207° |
| 2026-04-28 08:27 | 8.32692 | 122.85039 | 28911 ft | 416 kts | 207° |
| 2026-04-28 08:28 | 8.30180 | 122.83611 | 28656 ft | 415 kts | 207° |
| 2026-04-28 08:28 | 8.27672 | 122.82187 | 28396 ft | 412 kts | 207° |
| 2026-04-28 08:28 | 8.25183 | 122.80770 | 28138 ft | 410 kts | 207° |
| 2026-04-28 08:28 | 8.22707 | 122.79359 | 27895 ft | 408 kts | 207° |
| 2026-04-28 08:29 | 8.20241 | 122.77957 | 27643 ft | 406 kts | 207° |
| 2026-04-28 08:29 | 8.17787 | 122.76560 | 27397 ft | 404 kts | 207° |
| 2026-04-28 08:29 | 8.15343 | 122.75169 | 27152 ft | 403 kts | 207° |
| 2026-04-28 08:29 | 8.12908 | 122.73783 | 26912 ft | 401 kts | 207° |
| 2026-04-28 08:30 | 8.10482 | 122.72404 | 26671 ft | 399 kts | 207° |
| 2026-04-28 08:30 | 8.08063 | 122.71033 | 26433 ft | 398 kts | 207° |
| 2026-04-28 08:30 | 8.05653 | 122.69666 | 26196 ft | 397 kts | 207° |
| 2026-04-28 08:30 | 8.03252 | 122.68305 | 25962 ft | 395 kts | 207° |
| 2026-04-28 08:31 | 8.00861 | 122.66949 | 25730 ft | 394 kts | 208° |
| 2026-04-28 08:31 | 7.98480 | 122.65595 | 25502 ft | 391 kts | 208° |
| 2026-04-28 08:31 | 7.96124 | 122.64256 | 25109 ft | 387 kts | 208° |
| 2026-04-28 08:31 | 7.93778 | 122.62925 | 24627 ft | 387 kts | 208° |
| 2026-04-28 08:32 | 7.91440 | 122.61597 | 24129 ft | 386 kts | 208° |
| 2026-04-28 08:32 | 7.89097 | 122.60266 | 23639 ft | 387 kts | 208° |
| 2026-04-28 08:32 | 7.86752 | 122.58933 | 23084 ft | 387 kts | 208° |
| 2026-04-28 08:32 | 7.84410 | 122.57604 | 22579 ft | 385 kts | 208° |
| 2026-04-28 08:33 | 7.82079 | 122.56281 | 22086 ft | 383 kts | 208° |
| 2026-04-28 08:33 | 7.79761 | 122.54965 | 21599 ft | 382 kts | 208° |
| 2026-04-28 08:33 | 7.77452 | 122.53654 | 21122 ft | 380 kts | 208° |
| 2026-04-28 08:33 | 7.75151 | 122.52347 | 20646 ft | 379 kts | 208° |
| 2026-04-28 08:34 | 7.72859 | 122.51045 | 20170 ft | 378 kts | 208° |
| 2026-04-28 08:34 | 7.70577 | 122.49749 | 19693 ft | 377 kts | 208° |
| 2026-04-28 08:34 | 7.68294 | 122.48455 | 19227 ft | 376 kts | 208° |
| 2026-04-28 08:34 | 7.66013 | 122.47164 | 18759 ft | 376 kts | 208° |
| 2026-04-28 08:35 | 7.63733 | 122.45877 | 18308 ft | 375 kts | 208° |
| 2026-04-28 08:35 | 7.61468 | 122.44597 | 17829 ft | 374 kts | 208° |
| 2026-04-28 08:35 | 7.59218 | 122.43319 | 17457 ft | 367 kts | 208° |
| 2026-04-28 08:35 | 7.57023 | 122.42072 | 16875 ft | 357 kts | 208° |
| 2026-04-28 08:36 | 7.54895 | 122.40863 | 16459 ft | 344 kts | 208° |
| 2026-04-28 08:36 | 7.52853 | 122.39700 | 16056 ft | 332 kts | 208° |
| 2026-04-28 08:36 | 7.50870 | 122.38574 | 15665 ft | 322 kts | 207° |
| 2026-04-28 08:36 | 7.48946 | 122.37485 | 15293 ft | 313 kts | 207° |
| 2026-04-28 08:37 | 7.47074 | 122.36429 | 14922 ft | 305 kts | 207° |
| 2026-04-28 08:37 | 7.45225 | 122.35387 | 14551 ft | 304 kts | 207° |
| 2026-04-28 08:37 | 7.44005 | 122.34696 | 14321 ft | 303 kts | 207° |
| 2026-04-28 08:37 | 7.42163 | 122.33652 | 13956 ft | 305 kts | 207° |
| 2026-04-28 08:38 | 7.40303 | 122.32601 | 13574 ft | 308 kts | 207° |
| 2026-04-28 08:38 | 7.38430 | 122.31542 | 13168 ft | 309 kts | 208° |
| 2026-04-28 08:38 | 7.36553 | 122.30478 | 12794 ft | 310 kts | 208° |
| 2026-04-28 08:38 | 7.34674 | 122.29415 | 12402 ft | 311 kts | 208° |
| 2026-04-28 08:39 | 7.32785 | 122.28348 | 12029 ft | 311 kts | 208° |
| 2026-04-28 08:39 | 7.30887 | 122.27292 | 11626 ft | 312 kts | 204° |
| 2026-04-28 08:39 | 7.28832 | 122.26625 | 11218 ft | 311 kts | 188° |
| 2026-04-28 08:39 | 7.26684 | 122.26567 | 10822 ft | 309 kts | 171° |
| 2026-04-28 08:40 | 7.24584 | 122.26940 | 10515 ft | 305 kts | 168° |
| 2026-04-28 08:40 | 7.22492 | 122.27320 | 10125 ft | 306 kts | 169° |
| 2026-04-28 08:40 | 7.20399 | 122.27692 | 9771 ft | 304 kts | 169° |
| 2026-04-28 08:40 | 7.18314 | 122.28059 | 9396 ft | 303 kts | 169° |
| 2026-04-28 08:41 | 7.16235 | 122.28425 | 8968 ft | 302 kts | 169° |
| 2026-04-28 08:41 | 7.14179 | 122.28784 | 8635 ft | 298 kts | 169° |
| 2026-04-28 08:41 | 7.12153 | 122.29140 | 8003 ft | 294 kts | 169° |
| 2026-04-28 08:41 | 7.10159 | 122.29491 | 7481 ft | 286 kts | 169° |
| 2026-04-28 08:42 | 7.08231 | 122.29832 | 7044 ft | 276 kts | 168° |
| 2026-04-28 08:42 | 7.06367 | 122.30163 | 6615 ft | 268 kts | 168° |
| 2026-04-28 08:42 | 7.04563 | 122.30481 | 6193 ft | 260 kts | 168° |
| 2026-04-28 08:42 | 7.02790 | 122.30797 | 5997 ft | 257 kts | 168° |
| 2026-04-28 08:43 | 7.01093 | 122.31101 | 5917 ft | 237 kts | 168° |
| 2026-04-28 08:43 | 6.99531 | 122.31352 | 5820 ft | 218 kts | 175° |
| 2026-04-28 08:43 | 6.98067 | 122.31275 | 5719 ft | 206 kts | 190° |
| 2026-04-28 08:43 | 6.96688 | 122.30839 | 5282 ft | 215 kts | 203° |
| 2026-04-28 08:44 | 6.95270 | 122.30204 | 4727 ft | 231 kts | 203° |
| 2026-04-28 08:44 | 6.93755 | 122.29527 | 4111 ft | 245 kts | 204° |
| 2026-04-28 08:44 | 6.92332 | 122.28578 | 3468 ft | 248 kts | 226° |
| 2026-04-28 08:44 | 6.91361 | 122.27158 | 2973 ft | 244 kts | 249° |
| 2026-04-28 08:45 | 6.90992 | 122.25571 | 2890 ft | 224 kts | 268° |
| 2026-04-28 08:45 | 6.91049 | 122.24042 | 2807 ft | 214 kts | 275° |
| 2026-04-28 08:45 | 6.91141 | 122.22576 | 2713 ft | 206 kts | 275° |
| 2026-04-28 08:45 | 6.91230 | 122.21171 | 2623 ft | 198 kts | 275° |
| 2026-04-28 08:46 | 6.91315 | 122.19834 | 2463 ft | 184 kts | 275° |
| 2026-04-28 08:46 | 6.91396 | 122.18599 | 2263 ft | 171 kts | 275° |
| 2026-04-28 08:46 | 6.91473 | 122.17461 | 2073 ft | 157 kts | 275° |
| 2026-04-28 08:46 | 6.91545 | 122.16411 | 1891 ft | 143 kts | 275° |
| 2026-04-28 08:47 | 6.91610 | 122.15454 | 1706 ft | 132 kts | 277° |
| 2026-04-28 08:47 | 6.91672 | 122.14553 | 1532 ft | 127 kts | 274° |
| 2026-04-28 08:47 | 6.91719 | 122.13669 | 1297 ft | 126 kts | 276° |
| 2026-04-28 08:47 | 6.91805 | 122.12799 | 1054 ft | 124 kts | 276° |
| 2026-04-28 08:48 | 6.91884 | 122.11890 | 899 ft | 136 kts | 274° |
| 2026-04-28 08:48 | 6.91939 | 122.10935 | 790 ft | 138 kts | 273° |
| 2026-04-28 08:48 | 6.91992 | 122.09962 | 662 ft | 140 kts | 272° |
| 2026-04-28 08:48 | 6.92046 | 122.09016 | 486 ft | 135 kts | 272° |
| 2026-04-28 08:49 | 6.92108 | 122.08084 | 308 ft | 132 kts | 273° |
| 2026-04-28 08:49 | 6.92169 | 122.07169 | 103 ft | 129 kts | 272° |
| 2026-04-28 08:49 | 6.92220 | 122.06319 | 36 ft | 106 kts | 274° |
| 2026-04-28 08:49 | 6.92256 | 122.05755 | 37 ft | 56 kts | 274° |
| 2026-04-28 08:50 | 6.92275 | 122.05458 | 37 ft | 37 kts | 274° |
| 2026-04-28 08:50 | 6.92291 | 122.05212 | 37 ft | 34 kts | 273° |
| 2026-04-28 08:50 | 6.92306 | 122.04995 | 37 ft | 25 kts | 274° |
| 2026-04-28 08:50 | 6.92312 | 122.04862 | 36 ft | 13 kts | 265° |
| 2026-04-28 08:51 | 6.92312 | 122.04807 | 34 ft | 6 kts | 328° |
| 2026-04-28 08:51 | 6.92327 | 122.04822 | 36 ft | 3 kts | 98° |
| 2026-04-28 08:51 | 6.92324 | 122.04836 | 35 ft | 1 kts | 101° |
| 2026-04-28 08:51 | 6.92320 | 122.04857 | 36 ft | 8 kts | 102° |
| 2026-04-28 08:52 | 6.92311 | 122.04913 | 37 ft | 7 kts | 95° |
| 2026-04-28 08:52 | 6.92308 | 122.04960 | 37 ft | 6 kts | 94° |
| 2026-04-28 08:52 | 6.92305 | 122.05006 | 37 ft | 8 kts | 94° |
| 2026-04-28 08:52 | 6.92300 | 122.05081 | 37 ft | 13 kts | 94° |
| 2026-04-28 08:53 | 6.92292 | 122.05192 | 37 ft | 17 kts | 94° |
| 2026-04-28 08:53 | 6.92285 | 122.05306 | 37 ft | 16 kts | 94° |
| 2026-04-28 08:53 | 6.92278 | 122.05411 | 37 ft | 15 kts | 94° |
| 2026-04-28 08:53 | 6.92270 | 122.05532 | 37 ft | 19 kts | 94° |
| 2026-04-28 08:54 | 6.92261 | 122.05665 | 37 ft | 19 kts | 92° |
| 2026-04-28 08:54 | 6.92252 | 122.05802 | 34 ft | 20 kts | 94° |
| 2026-04-28 08:54 | 6.92244 | 122.05933 | 36 ft | 17 kts | 94° |
| 2026-04-28 08:54 | 6.92197 | 122.06004 | 36 ft | 9 kts | 144° |
| 2026-04-28 08:55 | 6.92155 | 122.06038 | 36 ft | 7 kts | 129° |
| 2026-04-28 08:55 | 6.92145 | 122.06079 | 36 ft | 5 kts | 96° |
| 2026-04-28 08:55 | 6.92143 | 122.06114 | 37 ft | 4 kts | 94° |
| 2026-04-28 08:55 | 6.92141 | 122.06141 | 37 ft | 3 kts | 94° |
| 2026-04-28 08:56 | 6.92139 | 122.06168 | 37 ft | 6 kts | 94° |
| 2026-04-28 08:56 | 6.92130 | 122.06210 | 37 ft | 6 kts | 122° |
| 2026-04-28 08:56 | 6.92097 | 122.06225 | 37 ft | 5 kts | 156° |
| 2026-04-28 08:56 | 6.92067 | 122.06239 | 36 ft | 4 kts | 154° |
| 2026-04-28 08:57 | 6.92055 | 122.06245 | 36 ft | 0 kts | 154° |